Nicoya, Costa Rica
Current Conditions -  °F | °C
As of 5:00 PM on Monday 24 Nov 2014 (Local Time) from MRLB Reporting Station
Rain Showers Rain Showers  
Wind Chill: 81°   Ceiling: Unl
Heat Index: 85°   Visibility: 6mi
Dew Point: 73°   Wind: 9mph
Humidity: 79%   Direction: 270°W
Pressure: 29.8"   Gusts: NA
Location:  10.14°N, 85.46°W
Report Text: MRLB 242300Z 27008KT 9999 VCSH FEW020TCU SCT025 27/23 A2980
Loading
Personal Weather Stations






























Interactive Weather Map New forecast layout! Learn more

10-Day Weather Forecast

Advertisements
Track Severe Weather on mobile